sensor_id;sensor_type;location;lat;lon;timestamp;pressure;altitude;pressure_sealevel;temperature;humidity
66196;BME280;75911;45.168;5.736;2024-03-02T00:02:13;98329.22;;;22.61;36.22
66196;BME280;75911;45.168;5.736;2024-03-02T00:04:39;98332.22;;;22.60;36.21
66196;BME280;75911;45.168;5.736;2024-03-02T00:07:06;98331.41;;;22.59;36.41
66196;BME280;75911;45.168;5.736;2024-03-02T00:09:31;98332.22;;;22.60;36.26
66196;BME280;75911;45.168;5.736;2024-03-02T00:11:58;98332.53;;;22.58;36.37
66196;BME280;75911;45.168;5.736;2024-03-02T00:14:23;98337.19;;;22.58;36.47
66196;BME280;75911;45.168;5.736;2024-03-02T00:16:51;98338.03;;;22.58;36.27
66196;BME280;75911;45.168;5.736;2024-03-02T00:19:17;98339.94;;;22.58;36.46
66196;BME280;75911;45.168;5.736;2024-03-02T00:21:42;98339.38;;;22.56;36.28
66196;BME280;75911;45.168;5.736;2024-03-02T00:24:31;98342.13;;;22.56;36.38
66196;BME280;75911;45.168;5.736;2024-03-02T00:26:58;98335.81;;;22.55;36.50
66196;BME280;75911;45.168;5.736;2024-03-02T00:29:23;98339.69;;;22.54;36.11
66196;BME280;75911;45.168;5.736;2024-03-02T00:31:49;98329.72;;;22.53;36.45
66196;BME280;75911;45.168;5.736;2024-03-02T00:34:15;98334.16;;;22.54;35.97
66196;BME280;75911;45.168;5.736;2024-03-02T00:36:43;98338.84;;;22.54;36.24
66196;BME280;75911;45.168;5.736;2024-03-02T00:39:12;98340.19;;;22.51;36.42
66196;BME280;75911;45.168;5.736;2024-03-02T00:41:41;98342.97;;;22.51;35.97
66196;BME280;75911;45.168;5.736;2024-03-02T00:44:12;98341.31;;;22.50;36.11
66196;BME280;75911;45.168;5.736;2024-03-02T00:46:39;98340.50;;;22.50;36.05
66196;BME280;75911;45.168;5.736;2024-03-02T00:51:36;98347.09;;;22.49;36.07
66196;BME280;75911;45.168;5.736;2024-03-02T00:54:04;98360.88;;;22.49;36.00
66196;BME280;75911;45.168;5.736;2024-03-02T00:56:30;98352.59;;;22.49;36.31
66196;BME280;75911;45.168;5.736;2024-03-02T00:58:56;98348.47;;;22.46;36.07
66196;BME280;75911;45.168;5.736;2024-03-02T01:01:22;98348.47;;;22.46;36.15
66196;BME280;75911;45.168;5.736;2024-03-02T01:03:47;98345.72;;;22.46;36.15
66196;BME280;75911;45.168;5.736;2024-03-02T01:06:14;98350.41;;;22.45;35.79
66196;BME280;75911;45.168;5.736;2024-03-02T01:08:39;98355.06;;;22.45;35.88
66196;BME280;75911;45.168;5.736;2024-03-02T01:11:05;98357.81;;;22.45;36.17
66196;BME280;75911;45.168;5.736;2024-03-02T01:13:30;98355.91;;;22.45;36.16
66196;BME280;75911;45.168;5.736;2024-03-02T01:15:56;98363.34;;;22.45;36.06
66196;BME280;75911;45.168;5.736;2024-03-02T01:18:22;98355.91;;;22.45;35.95
66196;BME280;75911;45.168;5.736;2024-03-02T01:20:48;98348.72;;;22.44;35.66
66196;BME280;75911;45.168;5.736;2024-03-02T01:23:13;98345.97;;;22.44;35.89
66196;BME280;75911;45.168;5.736;2024-03-02T01:25:38;98341.56;;;22.43;35.92
66196;BME280;75911;45.168;5.736;2024-03-02T01:28:04;98344.31;;;22.43;35.92
66196;BME280;75911;45.168;5.736;2024-03-02T01:30:30;98346.22;;;22.43;35.99
66196;BME280;75911;45.168;5.736;2024-03-02T01:32:55;98342.66;;;22.42;36.11
66196;BME280;75911;45.168;5.736;2024-03-02T01:35:21;98346.22;;;22.43;35.70
66196;BME280;75911;45.168;5.736;2024-03-02T01:37:46;98345.41;;;22.42;35.46
66196;BME280;75911;45.168;5.736;2024-03-02T01:40:12;98338.25;;;22.41;35.88
66196;BME280;75911;45.168;5.736;2024-03-02T01:42:40;98342.09;;;22.40;35.56
66196;BME280;75911;45.168;5.736;2024-03-02T01:45:06;98341.00;;;22.41;35.75
66196;BME280;75911;45.168;5.736;2024-03-02T01:47:32;98327.47;;;22.40;35.82
66196;BME280;75911;45.168;5.736;2024-03-02T01:49:58;98324.16;;;22.38;35.54
66196;BME280;75911;45.168;5.736;2024-03-02T01:52:23;98323.34;;;22.37;35.88
66196;BME280;75911;45.168;5.736;2024-03-02T01:54:49;98332.44;;;22.38;35.83
66196;BME280;75911;45.168;5.736;2024-03-02T01:57:14;98331.34;;;22.39;35.67
66196;BME280;75911;45.168;5.736;2024-03-02T01:59:40;98332.44;;;22.38;35.81
66196;BME280;75911;45.168;5.736;2024-03-02T02:02:05;98331.63;;;22.37;35.62
66196;BME280;75911;45.168;5.736;2024-03-02T02:04:31;98333.25;;;22.38;35.81
66196;BME280;75911;45.168;5.736;2024-03-02T02:06:56;98326.09;;;22.37;35.38
66196;BME280;75911;45.168;5.736;2024-03-02T02:09:22;98323.34;;;22.37;35.76
66196;BME280;75911;45.168;5.736;2024-03-02T02:11:47;98318.09;;;22.36;35.66
66196;BME280;75911;45.168;5.736;2024-03-02T02:14:12;98314.78;;;22.34;35.46
66196;BME280;75911;45.168;5.736;2024-03-02T02:16:38;98317.78;;;22.32;35.73
66196;BME280;75911;45.168;5.736;2024-03-02T02:19:03;98315.88;;;22.33;35.52
66196;BME280;75911;45.168;5.736;2024-03-02T02:21:29;98314.22;;;22.32;35.58
66196;BME280;75911;45.168;5.736;2024-03-02T02:23:54;98312.56;;;22.31;35.53
66196;BME280;75911;45.168;5.736;2024-03-02T02:26:19;98313.38;;;22.31;35.80
66196;BME280;75911;45.168;5.736;2024-03-02T02:28:45;98316.16;;;22.31;35.80
66196;BME280;75911;45.168;5.736;2024-03-02T02:31:13;98314.50;;;22.30;35.55
66196;BME280;75911;45.168;5.736;2024-03-02T02:33:39;98307.31;;;22.29;35.62
66196;BME280;75911;45.168;5.736;2024-03-02T02:36:05;98300.44;;;22.32;35.34
66196;BME280;75911;45.168;5.736;2024-03-02T02:38:32;98301.25;;;22.32;35.41
66196;BME280;75911;45.168;5.736;2024-03-02T02:40:58;98311.47;;;22.32;35.86
66196;BME280;75911;45.168;5.736;2024-03-02T02:43:23;98301.53;;;22.31;35.28
66196;BME280;75911;45.168;5.736;2024-03-02T02:45:49;98295.22;;;22.30;35.51
66196;BME280;75911;45.168;5.736;2024-03-02T02:48:14;98300.72;;;22.30;35.38
66196;BME280;75911;45.168;5.736;2024-03-02T02:50:39;98297.97;;;22.30;35.32
66196;BME280;75911;45.168;5.736;2024-03-02T02:53:05;98300.72;;;22.30;35.49
66196;BME280;75911;45.168;5.736;2024-03-02T02:55:31;98301.81;;;22.29;35.71
66196;BME280;75911;45.168;5.736;2024-03-02T02:57:56;98300.16;;;22.28;35.32
66196;BME280;75911;45.168;5.736;2024-03-02T03:00:22;98293.78;;;22.28;35.68
66196;BME280;75911;45.168;5.736;2024-03-02T03:02:49;98296.28;;;22.29;35.51
66196;BME280;75911;45.168;5.736;2024-03-02T03:05:15;98290.78;;;22.29;35.35
66196;BME280;75911;45.168;5.736;2024-03-02T03:07:41;98288.84;;;22.30;35.84
66196;BME280;75911;45.168;5.736;2024-03-02T03:10:07;98292.16;;;22.32;35.31
66196;BME280;75911;45.168;5.736;2024-03-02T03:12:36;98289.41;;;22.32;35.19
66196;BME280;75911;45.168;5.736;2024-03-02T03:15:02;98283.06;;;22.31;35.32
66196;BME280;75911;45.168;5.736;2024-03-02T03:17:29;98283.31;;;22.30;35.59
66196;BME280;75911;45.168;5.736;2024-03-02T03:19:55;98289.97;;;22.29;35.18
66196;BME280;75911;45.168;5.736;2024-03-02T03:22:20;98294.34;;;22.30;35.61
66196;BME280;75911;45.168;5.736;2024-03-02T03:24:45;98292.72;;;22.29;35.31
66196;BME280;75911;45.168;5.736;2024-03-02T03:27:11;98288.84;;;22.30;35.63
66196;BME280;75911;45.168;5.736;2024-03-02T03:29:37;98292.72;;;22.29;35.20
66196;BME280;75911;45.168;5.736;2024-03-02T03:32:02;98290.22;;;22.27;35.26
66196;BME280;75911;45.168;5.736;2024-03-02T03:34:28;98292.97;;;22.27;35.32
66196;BME280;75911;45.168;5.736;2024-03-02T03:36:54;98283.06;;;22.26;35.67
66196;BME280;75911;45.168;5.736;2024-03-02T03:39:19;98269.78;;;22.23;35.28
66196;BME280;75911;45.168;5.736;2024-03-02T03:41:45;98267.03;;;22.23;35.42
66196;BME280;75911;45.168;5.736;2024-03-02T03:44:10;98270.88;;;22.22;35.39
66196;BME280;75911;45.168;5.736;2024-03-02T03:46:35;98259.84;;;22.22;35.61
66196;BME280;75911;45.168;5.736;2024-03-02T03:49:01;98269.22;;;22.21;35.27
66196;BME280;75911;45.168;5.736;2024-03-02T03:51:26;98264.81;;;22.20;35.68
66196;BME280;75911;45.168;5.736;2024-03-02T03:53:51;98268.38;;;22.20;35.22
66196;BME280;75911;45.168;5.736;2024-03-02T03:56:17;98270.03;;;22.21;35.22
66196;BME280;75911;45.168;5.736;2024-03-02T03:58:42;98263.13;;;22.19;35.59
66196;BME280;75911;45.168;5.736;2024-03-02T04:01:07;98249.66;;;22.17;35.46
66196;BME280;75911;45.168;5.736;2024-03-02T04:03:33;98256.25;;;22.16;35.60
66196;BME280;75911;45.168;5.736;2024-03-02T04:05:58;98254.31;;;22.17;35.27
66196;BME280;75911;45.168;5.736;2024-03-02T04:08:24;98247.16;;;22.16;35.63
66196;BME280;75911;45.168;5.736;2024-03-02T04:10:49;98243.56;;;22.15;35.25
66196;BME280;75911;45.168;5.736;2024-03-02T04:13:14;98241.91;;;22.14;35.50
66196;BME280;75911;45.168;5.736;2024-03-02T04:15:40;98239.16;;;22.14;35.55
66196;BME280;75911;45.168;5.736;2024-03-02T04:18:08;98246.59;;;22.14;35.54
66196;BME280;75911;45.168;5.736;2024-03-02T04:20:33;98239.41;;;22.13;35.60
66196;BME280;75911;45.168;5.736;2024-03-02T04:22:58;98247.69;;;22.13;35.32
66196;BME280;75911;45.168;5.736;2024-03-02T04:25:24;98235.00;;;22.12;35.72
66196;BME280;75911;45.168;5.736;2024-03-02T04:27:49;98231.44;;;22.11;35.73
66196;BME280;75911;45.168;5.736;2024-03-02T04:30:15;98231.44;;;22.11;35.35
66196;BME280;75911;45.168;5.736;2024-03-02T04:32:40;98234.19;;;22.11;35.61
66196;BME280;75911;45.168;5.736;2024-03-02T04:35:06;98234.19;;;22.11;35.19
66196;BME280;75911;45.168;5.736;2024-03-02T04:37:34;98231.69;;;22.10;35.73
66196;BME280;75911;45.168;5.736;2024-03-02T04:40:00;98230.56;;;22.11;35.72
66196;BME280;75911;45.168;5.736;2024-03-02T04:42:25;98240.78;;;22.10;35.64
66196;BME280;75911;45.168;5.736;2024-03-02T04:44:51;98247.13;;;22.11;35.38
66196;BME280;75911;45.168;5.736;2024-03-02T04:47:16;98258.13;;;22.11;35.71
66196;BME280;75911;45.168;5.736;2024-03-02T04:49:41;98249.88;;;22.11;35.28
66196;BME280;75911;45.168;5.736;2024-03-02T04:52:07;98254.56;;;22.10;35.37
66196;BME280;75911;45.168;5.736;2024-03-02T04:54:32;98249.06;;;22.10;35.51
66196;BME280;75911;45.168;5.736;2024-03-02T04:56:57;98254.56;;;22.10;35.65
66196;BME280;75911;45.168;5.736;2024-03-02T04:59:23;98246.28;;;22.10;35.52
66196;BME280;75911;45.168;5.736;2024-03-02T05:01:48;98248.22;;;22.10;35.33
66196;BME280;75911;45.168;5.736;2024-03-02T05:04:14;98239.97;;;22.10;35.50
66196;BME280;75911;45.168;5.736;2024-03-02T05:06:40;98239.13;;;22.09;35.49
66196;BME280;75911;45.168;5.736;2024-03-02T05:09:09;98236.38;;;22.09;35.57
66196;BME280;75911;45.168;5.736;2024-03-02T05:11:35;98228.13;;;22.09;35.23
66196;BME280;75911;45.168;5.736;2024-03-02T05:14:03;98229.19;;;22.08;35.51
66196;BME280;75911;45.168;5.736;2024-03-02T05:16:35;98242.97;;;22.08;35.19
66196;BME280;75911;45.168;5.736;2024-03-02T05:19:03;98252.06;;;22.09;35.29
66196;BME280;75911;45.168;5.736;2024-03-02T05:21:31;98237.47;;;22.08;35.36
66196;BME280;75911;45.168;5.736;2024-03-02T05:23:56;98236.66;;;22.08;35.43
66196;BME280;75911;45.168;5.736;2024-03-02T05:26:21;98237.75;;;22.07;35.31
66196;BME280;75911;45.168;5.736;2024-03-02T05:28:47;98230.31;;;22.07;35.59
66196;BME280;75911;45.168;5.736;2024-03-02T05:31:14;98224.81;;;22.07;35.31
66196;BME280;75911;45.168;5.736;2024-03-02T05:33:40;98222.03;;;22.07;35.38
66196;BME280;75911;45.168;5.736;2024-03-02T05:36:06;98224.81;;;22.07;35.16
66196;BME280;75911;45.168;5.736;2024-03-02T05:38:34;98223.97;;;22.07;35.33
66196;BME280;75911;45.168;5.736;2024-03-02T05:40:59;98226.75;;;22.07;35.55
66196;BME280;75911;45.168;5.736;2024-03-02T05:43:25;98211.03;;;22.07;35.24
66196;BME280;75911;45.168;5.736;2024-03-02T05:45:50;98209.91;;;22.08;35.38
66196;BME280;75911;45.168;5.736;2024-03-02T05:48:15;98220.13;;;22.08;35.86
66196;BME280;75911;45.168;5.736;2024-03-02T05:50:41;98226.44;;;22.08;35.69
66196;BME280;75911;45.168;5.736;2024-03-02T05:53:06;98223.44;;;22.10;35.52
66196;BME280;75911;45.168;5.736;2024-03-02T05:55:31;98214.91;;;22.11;35.41
66196;BME280;75911;45.168;5.736;2024-03-02T05:57:57;98218.47;;;22.12;35.51
66196;BME280;75911;45.168;5.736;2024-03-02T06:00:32;98207.44;;;22.12;35.22
66196;BME280;75911;45.168;5.736;2024-03-02T06:02:57;98200.56;;;22.14;35.32
66196;BME280;75911;45.168;5.736;2024-03-02T06:05:23;98197.81;;;22.14;35.31
66196;BME280;75911;45.168;5.736;2024-03-02T06:07:48;98192.84;;;22.16;35.55
66196;BME280;75911;45.168;5.736;2024-03-02T06:10:14;98194.53;;;22.17;35.86
66196;BME280;75911;45.168;5.736;2024-03-02T06:12:39;98194.78;;;22.16;35.63
66196;BME280;75911;45.168;5.736;2024-03-02T06:15:05;98190.34;;;22.15;35.64
66196;BME280;75911;45.168;5.736;2024-03-02T06:17:30;98189.53;;;22.14;35.36
66196;BME280;75911;45.168;5.736;2024-03-02T06:19:56;98185.13;;;22.13;35.43
66196;BME280;75911;45.168;5.736;2024-03-02T06:22:21;98187.91;;;22.13;35.57
66196;BME280;75911;45.168;5.736;2024-03-02T06:24:50;98190.34;;;22.15;35.65
66196;BME280;75911;45.168;5.736;2024-03-02T06:27:15;98181.81;;;22.16;35.12
66196;BME280;75911;45.168;5.736;2024-03-02T06:29:41;98175.50;;;22.16;35.50
66196;BME280;75911;45.168;5.736;2024-03-02T06:32:07;98182.94;;;22.15;35.12
66196;BME280;75911;45.168;5.736;2024-03-02T06:34:32;98182.09;;;22.15;35.19
66196;BME280;75911;45.168;5.736;2024-03-02T06:36:57;98175.75;;;22.14;35.41
66196;BME280;75911;45.168;5.736;2024-03-02T06:39:23;98181.28;;;22.14;35.36
66196;BME280;75911;45.168;5.736;2024-03-02T06:41:48;98177.69;;;22.14;35.42
66196;BME280;75911;45.168;5.736;2024-03-02T06:44:14;98180.44;;;22.14;35.44
66196;BME280;75911;45.168;5.736;2024-03-02T06:46:39;98180.19;;;22.15;35.72
66196;BME280;75911;45.168;5.736;2024-03-02T06:49:04;98174.38;;;22.17;35.64
66196;BME280;75911;45.168;5.736;2024-03-02T06:51:30;98166.97;;;22.17;35.54
66196;BME280;75911;45.168;5.736;2024-03-02T06:53:55;98158.41;;;22.19;36.00
66196;BME280;75911;45.168;5.736;2024-03-02T06:56:20;98167.50;;;22.19;35.68
66196;BME280;75911;45.168;5.736;2024-03-02T06:58:46;98170.81;;;22.21;36.03
66196;BME280;75911;45.168;5.736;2024-03-02T07:01:12;98170.56;;;22.23;36.37
66196;BME280;75911;45.168;5.736;2024-03-02T07:03:37;98157.34;;;22.25;35.91
66196;BME280;75911;45.168;5.736;2024-03-02T07:06:04;98162.03;;;22.24;36.15
66196;BME280;75911;45.168;5.736;2024-03-02T07:08:30;98167.28;;;22.26;36.59
66196;BME280;75911;45.168;5.736;2024-03-02T07:10:55;98165.34;;;22.27;36.42
66196;BME280;75911;45.168;5.736;2024-03-02T07:13:22;98153.22;;;22.28;36.56
66196;BME280;75911;45.168;5.736;2024-03-02T07:15:47;98144.94;;;22.28;36.38
66196;BME280;75911;45.168;5.736;2024-03-02T07:18:35;98145.78;;;22.28;36.01
66196;BME280;75911;45.168;5.736;2024-03-02T07:21:09;98141.91;;;22.29;36.71
66196;BME280;75911;45.168;5.736;2024-03-02T07:23:34;98138.06;;;22.30;36.56
66196;BME280;75911;45.168;5.736;2024-03-02T07:26:00;98137.78;;;22.32;36.46
66196;BME280;75911;45.168;5.736;2024-03-02T07:28:27;98145.78;;;22.33;36.59
66196;BME280;75911;45.168;5.736;2024-03-02T07:31:03;98134.50;;;22.35;36.51
66196;BME280;75911;45.168;5.736;2024-03-02T07:33:30;98127.31;;;22.34;36.58
66196;BME280;75911;45.168;5.736;2024-03-02T07:35:55;98135.31;;;22.35;36.50
66196;BME280;75911;45.168;5.736;2024-03-02T07:38:22;98131.44;;;22.36;36.63
66196;BME280;75911;45.168;5.736;2024-03-02T07:40:48;98129.53;;;22.37;36.45
66196;BME280;75911;45.168;5.736;2024-03-02T07:43:16;98131.16;;;22.38;36.34
66196;BME280;75911;45.168;5.736;2024-03-02T07:45:42;98123.72;;;22.38;36.48
66196;BME280;75911;45.168;5.736;2024-03-02T07:48:07;98125.38;;;22.39;36.03
66196;BME280;75911;45.168;5.736;2024-03-02T07:50:33;98111.59;;;22.39;35.89
66196;BME280;75911;45.168;5.736;2024-03-02T07:53:03;98111.34;;;22.41;36.09
66196;BME280;75911;45.168;5.736;2024-03-02T07:55:29;98104.97;;;22.40;36.25
66196;BME280;75911;45.168;5.736;2024-03-02T07:57:56;98105.25;;;22.44;35.99
66196;BME280;75911;45.168;5.736;2024-03-02T08:00:22;98101.38;;;22.45;35.78
66196;BME280;75911;45.168;5.736;2024-03-02T08:02:48;98090.34;;;22.45;37.73
66196;BME280;75911;45.168;5.736;2024-03-02T08:05:14;98082.09;;;22.50;38.09
66196;BME280;75911;45.168;5.736;2024-03-02T08:07:40;98083.19;;;22.54;37.04
66196;BME280;75911;45.168;5.736;2024-03-02T08:10:06;98089.53;;;22.55;36.89
66196;BME280;75911;45.168;5.736;2024-03-02T08:12:32;98085.97;;;22.54;37.01
66196;BME280;75911;45.168;5.736;2024-03-02T08:14:57;98084.03;;;22.55;36.39
66196;BME280;75911;45.168;5.736;2024-03-02T08:17:22;98082.38;;;22.54;36.24
66196;BME280;75911;45.168;5.736;2024-03-02T08:19:48;98079.63;;;22.54;36.27
66196;BME280;75911;45.168;5.736;2024-03-02T08:22:14;98077.13;;;22.52;36.59
66196;BME280;75911;45.168;5.736;2024-03-02T08:24:40;98070.81;;;22.52;36.12
66196;BME280;75911;45.168;5.736;2024-03-02T08:27:06;98070.81;;;22.52;36.07
66196;BME280;75911;45.168;5.736;2024-03-02T08:29:31;98068.88;;;22.52;36.26
66196;BME280;75911;45.168;5.736;2024-03-02T08:31:57;98072.44;;;22.53;36.23
66196;BME280;75911;45.168;5.736;2024-03-02T08:34:22;98063.09;;;22.54;36.14
66196;BME280;75911;45.168;5.736;2024-03-02T08:36:47;98060.31;;;22.54;36.03
66196;BME280;75911;45.168;5.736;2024-03-02T08:39:13;98061.97;;;22.55;35.84
66196;BME280;75911;45.168;5.736;2024-03-02T08:41:43;98051.19;;;22.53;35.76
66196;BME280;75911;45.168;5.736;2024-03-02T08:44:09;98047.63;;;22.53;35.85
66196;BME280;75911;45.168;5.736;2024-03-02T08:46:34;98032.75;;;22.54;35.98
66196;BME280;75911;45.168;5.736;2024-03-02T08:49:00;98036.31;;;22.54;36.01
66196;BME280;75911;45.168;5.736;2024-03-02T08:51:25;98034.13;;;22.56;35.81
66196;BME280;75911;45.168;5.736;2024-03-02T08:53:50;98025.53;;;22.58;36.11
66196;BME280;75911;45.168;5.736;2024-03-02T08:56:16;98034.66;;;22.58;36.12
66196;BME280;75911;45.168;5.736;2024-03-02T08:58:41;98016.19;;;22.59;36.29
66196;BME280;75911;45.168;5.736;2024-03-02T09:01:08;98022.50;;;22.59;35.65
66196;BME280;75911;45.168;5.736;2024-03-02T09:03:34;98030.53;;;22.61;37.34
66196;BME280;75911;45.168;5.736;2024-03-02T09:06:00;98018.66;;;22.60;36.29
66196;BME280;75911;45.168;5.736;2024-03-02T09:08:25;98009.28;;;22.61;36.29
66196;BME280;75911;45.168;5.736;2024-03-02T09:10:51;98004.56;;;22.62;36.21
66196;BME280;75911;45.168;5.736;2024-03-02T09:13:17;97995.22;;;22.63;35.98
66196;BME280;75911;45.168;5.736;2024-03-02T09:15:42;98002.38;;;22.64;37.06
66196;BME280;75911;45.168;5.736;2024-03-02T09:18:09;97998.22;;;22.66;37.82
66196;BME280;75911;45.168;5.736;2024-03-02T09:20:35;97998.50;;;22.70;38.10
66196;BME280;75911;45.168;5.736;2024-03-02T09:23:00;97984.16;;;22.73;38.66
66196;BME280;75911;45.168;5.736;2024-03-02T09:25:25;97969.78;;;22.76;38.52
66196;BME280;75911;45.168;5.736;2024-03-02T09:27:51;97967.31;;;22.80;38.95
66196;BME280;75911;45.168;5.736;2024-03-02T09:30:16;97969.50;;;22.83;38.70
66196;BME280;75911;45.168;5.736;2024-03-02T09:32:41;97959.28;;;22.89;38.36
66196;BME280;75911;45.168;5.736;2024-03-02T09:35:07;97947.66;;;22.92;37.92
66196;BME280;75911;45.168;5.736;2024-03-02T09:37:33;97955.66;;;22.93;37.90
66196;BME280;75911;45.168;5.736;2024-03-02T09:39:59;97952.91;;;22.93;37.37
66196;BME280;75911;45.168;5.736;2024-03-02T09:42:24;97948.19;;;22.94;37.33
66196;BME280;75911;45.168;5.736;2024-03-02T09:44:51;97942.41;;;22.95;37.38
66196;BME280;75911;45.168;5.736;2024-03-02T09:47:17;97938.84;;;22.95;37.49
66196;BME280;75911;45.168;5.736;2024-03-02T09:49:42;97946.00;;;22.96;37.39
66196;BME280;75911;45.168;5.736;2024-03-02T09:52:10;97950.69;;;22.95;37.17
66196;BME280;75911;45.168;5.736;2024-03-02T09:54:35;97946.25;;;22.94;37.33
66196;BME280;75911;45.168;5.736;2024-03-02T09:57:02;97939.66;;;22.95;37.08
66196;BME280;75911;45.168;5.736;2024-03-02T09:59:28;97937.16;;;22.94;37.18
66196;BME280;75911;45.168;5.736;2024-03-02T10:02:00;97922.81;;;22.92;36.95
66196;BME280;75911;45.168;5.736;2024-03-02T10:04:27;97922.00;;;22.91;37.06
66196;BME280;75911;45.168;5.736;2024-03-02T10:07:15;97915.66;;;22.91;36.98
66196;BME280;75911;45.168;5.736;2024-03-02T10:09:41;97906.03;;;22.88;37.38
66196;BME280;75911;45.168;5.736;2024-03-02T10:12:08;97909.59;;;22.89;37.24
66196;BME280;75911;45.168;5.736;2024-03-02T10:14:34;97895.28;;;22.86;37.67
66196;BME280;75911;45.168;5.736;2024-03-02T10:19:29;97887.81;;;22.87;37.35
66196;BME280;75911;45.168;5.736;2024-03-02T10:21:59;97885.06;;;22.87;37.12
66196;BME280;75911;45.168;5.736;2024-03-02T10:24:25;97884.22;;;22.86;37.15
66196;BME280;75911;45.168;5.736;2024-03-02T10:26:51;97876.22;;;22.85;37.58
66196;BME280;75911;45.168;5.736;2024-03-02T10:29:17;97879.81;;;22.85;37.64
66196;BME280;75911;45.168;5.736;2024-03-02T10:31:45;97876.22;;;22.85;37.22
66196;BME280;75911;45.168;5.736;2024-03-02T10:34:12;97873.47;;;22.85;37.19
66196;BME280;75911;45.168;5.736;2024-03-02T10:36:40;97859.69;;;22.85;37.10
66196;BME280;75911;45.168;5.736;2024-03-02T10:39:07;97855.28;;;22.84;37.40
66196;BME280;75911;45.168;5.736;2024-03-02T10:41:34;97853.06;;;22.86;37.00
66196;BME280;75911;45.168;5.736;2024-03-02T10:44:04;97848.66;;;22.85;37.06
66196;BME280;75911;45.168;5.736;2024-03-02T10:46:31;97848.66;;;22.85;37.11
66196;BME280;75911;45.168;5.736;2024-03-02T10:48:58;97840.38;;;22.85;37.09
66196;BME280;75911;45.168;5.736;2024-03-02T10:51:25;97841.19;;;22.85;37.01
66196;BME280;75911;45.168;5.736;2024-03-02T10:53:52;97818.03;;;22.86;37.32
66196;BME280;75911;45.168;5.736;2024-03-02T10:56:21;97814.72;;;22.84;37.08
66196;BME280;75911;45.168;5.736;2024-03-02T10:58:57;97805.91;;;22.82;36.92
66196;BME280;75911;45.168;5.736;2024-03-02T11:01:25;97793.19;;;22.81;37.47
66196;BME280;75911;45.168;5.736;2024-03-02T11:03:51;97784.13;;;22.81;37.25
66196;BME280;75911;45.168;5.736;2024-03-02T11:06:17;97776.13;;;22.79;37.22
66196;BME280;75911;45.168;5.736;2024-03-02T11:08:45;97771.72;;;22.78;37.43
66196;BME280;75911;45.168;5.736;2024-03-02T11:11:15;97759.06;;;22.77;37.49
66196;BME280;75911;45.168;5.736;2024-03-02T11:13:49;97766.47;;;22.77;37.59
66196;BME280;75911;45.168;5.736;2024-03-02T11:16:33;97752.16;;;22.75;37.46
66196;BME280;75911;45.168;5.736;2024-03-02T11:19:10;97743.88;;;22.75;37.37
66196;BME280;75911;45.168;5.736;2024-03-02T11:21:37;97744.19;;;22.73;37.46
66196;BME280;75911;45.168;5.736;2024-03-02T11:26:47;97728.19;;;22.70;37.59
66196;BME280;75911;45.168;5.736;2024-03-02T11:32:05;97721.84;;;22.70;37.91
66196;BME280;75911;45.168;5.736;2024-03-02T11:34:35;97721.56;;;22.71;38.35
66196;BME280;75911;45.168;5.736;2024-03-02T11:37:01;97705.25;;;22.75;38.93
66196;BME280;75911;45.168;5.736;2024-03-02T11:39:28;97703.56;;;22.79;39.56
66196;BME280;75911;45.168;5.736;2024-03-02T11:41:54;97706.31;;;22.84;39.64
66196;BME280;75911;45.168;5.736;2024-03-02T11:44:20;97699.66;;;22.90;39.65
66196;BME280;75911;45.168;5.736;2024-03-02T11:46:52;97692.41;;;22.94;39.75
66196;BME280;75911;45.168;5.736;2024-03-02T11:49:36;97693.25;;;22.95;40.01
66196;BME280;75911;45.168;5.736;2024-03-02T11:52:04;97694.88;;;22.96;39.92
66196;BME280;75911;45.168;5.736;2024-03-02T11:54:32;97693.78;;;22.97;40.10
66196;BME280;75911;45.168;5.736;2024-03-02T11:57:01;97685.78;;;22.95;39.93
66196;BME280;75911;45.168;5.736;2024-03-02T11:59:28;97681.91;;;22.96;39.74
66196;BME280;75911;45.168;5.736;2024-03-02T12:01:54;97686.34;;;22.97;39.52
66196;BME280;75911;45.168;5.736;2024-03-02T12:04:21;97668.13;;;22.96;39.42
66196;BME280;75911;45.168;5.736;2024-03-02T12:06:54;97657.91;;;22.97;39.60
66196;BME280;75911;45.168;5.736;2024-03-02T12:09:21;97643.28;;;22.96;39.11
66196;BME280;75911;45.168;5.736;2024-03-02T12:11:46;97654.31;;;22.96;39.04
66196;BME280;75911;45.168;5.736;2024-03-02T12:14:12;97641.66;;;22.95;39.30
66196;BME280;75911;45.168;5.736;2024-03-02T12:16:46;97643.28;;;22.96;38.85
66196;BME280;75911;45.168;5.736;2024-03-02T12:19:12;97641.66;;;22.95;38.78
66196;BME280;75911;45.168;5.736;2024-03-02T12:21:38;97631.72;;;22.94;38.97
66196;BME280;75911;45.168;5.736;2024-03-02T12:24:03;97629.78;;;22.95;38.75
66196;BME280;75911;45.168;5.736;2024-03-02T12:26:29;97609.63;;;22.94;38.68
66196;BME280;75911;45.168;5.736;2024-03-02T12:28:54;97608.81;;;22.94;38.76
66196;BME280;75911;45.168;5.736;2024-03-02T12:31:20;97612.72;;;22.93;38.93
66196;BME280;75911;45.168;5.736;2024-03-02T12:33:46;97610.75;;;22.93;38.46
66196;BME280;75911;45.168;5.736;2024-03-02T12:36:13;97610.22;;;22.91;38.77
66196;BME280;75911;45.168;5.736;2024-03-02T12:38:43;97611.03;;;22.92;38.66
66196;BME280;75911;45.168;5.736;2024-03-02T12:41:09;97607.47;;;22.91;38.41
66196;BME280;75911;45.168;5.736;2024-03-02T12:43:34;97619.63;;;22.90;38.56
66196;BME280;75911;45.168;5.736;2024-03-02T12:46:00;97600.31;;;22.90;38.34
66196;BME280;75911;45.168;5.736;2024-03-02T12:48:25;97603.38;;;22.89;38.81
66196;BME280;75911;45.168;5.736;2024-03-02T12:50:50;97615.22;;;22.89;38.67
66196;BME280;75911;45.168;5.736;2024-03-02T12:53:16;97604.19;;;22.89;38.75
66196;BME280;75911;45.168;5.736;2024-03-02T12:55:42;97612.47;;;22.89;38.37
66196;BME280;75911;45.168;5.736;2024-03-02T12:58:16;97617.44;;;22.87;38.51
66196;BME280;75911;45.168;5.736;2024-03-02T13:00:42;97617.44;;;22.87;38.36
66196;BME280;75911;45.168;5.736;2024-03-02T13:03:07;97617.44;;;22.87;38.19
66196;BME280;75911;45.168;5.736;2024-03-02T13:05:32;97617.44;;;22.87;38.16
66196;BME280;75911;45.168;5.736;2024-03-02T13:07:58;97618.25;;;22.87;38.25